Terminal Aerodrome Forecast
Issued by NWS Binghamton, NY

Home | Current Version | Previous Version | Text Only | Print | Product List | Glossary On
Versions: 1 2 3 4 5 6 7 8 9 10 11 12 13 14 15 16 17 18 19 20 21 22 23 24 25 26 27
000
FTUS41 KBGM 011200 AAA
TAFSYR
TAF AMD
KSYR 011238Z 0113/0212 13004KT P6SM SCT120
     FM011400 26008KT P6SM SCT050 SCT250
     FM020000 18005KT P6SM BKN100=

USA.gov is the U.S. government's official web portal to all federal, state and local government web resources and services.